sensor_id;sensor_type;location;lat;lon;timestamp;temperature;humidity
66522;SHT31;53349;53.538;8.584;2023-02-18T00:00:11;7.19;73.49
66522;SHT31;53349;53.538;8.584;2023-02-18T00:02:38;7.16;73.67
66522;SHT31;53349;53.538;8.584;2023-02-18T00:05:05;7.14;73.90
66522;SHT31;53349;53.538;8.584;2023-02-18T00:07:39;7.13;73.99
66522;SHT31;53349;53.538;8.584;2023-02-18T00:10:08;7.17;73.97
66522;SHT31;53349;53.538;8.584;2023-02-18T00:12:35;7.17;73.97
66522;SHT31;53349;53.538;8.584;2023-02-18T00:15:01;7.20;73.94
66522;SHT31;53349;53.538;8.584;2023-02-18T00:17:28;7.19;73.91
66522;SHT31;53349;53.538;8.584;2023-02-18T00:19:53;7.19;73.89
66522;SHT31;53349;53.538;8.584;2023-02-18T00:22:19;7.22;73.97
66522;SHT31;53349;53.538;8.584;2023-02-18T00:24:44;7.20;74.08
66522;SHT31;53349;53.538;8.584;2023-02-18T00:27:10;7.19;74.24
66522;SHT31;53349;53.538;8.584;2023-02-18T00:29:38;7.20;74.37
66522;SHT31;53349;53.538;8.584;2023-02-18T00:32:04;7.20;74.52
66522;SHT31;53349;53.538;8.584;2023-02-18T00:34:29;7.23;74.62
66522;SHT31;53349;53.538;8.584;2023-02-18T00:36:55;7.19;74.81
66522;SHT31;53349;53.538;8.584;2023-02-18T00:39:20;7.20;75.00
66522;SHT31;53349;53.538;8.584;2023-02-18T00:41:46;7.22;75.11
66522;SHT31;53349;53.538;8.584;2023-02-18T00:44:11;7.20;75.20
66522;SHT31;53349;53.538;8.584;2023-02-18T00:46:37;7.19;75.23
66522;SHT31;53349;53.538;8.584;2023-02-18T00:49:04;7.20;75.25
66522;SHT31;53349;53.538;8.584;2023-02-18T00:51:29;7.17;75.34
66522;SHT31;53349;53.538;8.584;2023-02-18T00:53:55;7.16;75.40
66522;SHT31;53349;53.538;8.584;2023-02-18T00:56:22;7.14;75.46
66522;SHT31;53349;53.538;8.584;2023-02-18T00:58:48;7.17;75.42
66522;SHT31;53349;53.538;8.584;2023-02-18T01:01:13;7.17;75.46
66522;SHT31;53349;53.538;8.584;2023-02-18T01:03:40;7.17;75.41
66522;SHT31;53349;53.538;8.584;2023-02-18T01:06:09;7.16;75.38
66522;SHT31;53349;53.538;8.584;2023-02-18T01:08:36;7.19;75.31
66522;SHT31;53349;53.538;8.584;2023-02-18T01:11:02;7.19;75.29
66522;SHT31;53349;53.538;8.584;2023-02-18T01:13:30;7.20;75.18
66522;SHT31;53349;53.538;8.584;2023-02-18T01:15:56;7.17;75.02
66522;SHT31;53349;53.538;8.584;2023-02-18T01:18:24;7.16;75.05
66522;SHT31;53349;53.538;8.584;2023-02-18T01:20:53;7.20;75.00
66522;SHT31;53349;53.538;8.584;2023-02-18T01:23:19;7.20;74.88
66522;SHT31;53349;53.538;8.584;2023-02-18T01:25:44;7.23;74.84
66522;SHT31;53349;53.538;8.584;2023-02-18T01:28:11;7.22;74.87
66522;SHT31;53349;53.538;8.584;2023-02-18T01:30:38;7.23;74.81
66522;SHT31;53349;53.538;8.584;2023-02-18T01:33:04;7.22;74.78
66522;SHT31;53349;53.538;8.584;2023-02-18T01:35:29;7.24;74.70
66522;SHT31;53349;53.538;8.584;2023-02-18T01:37:55;7.26;74.64
66522;SHT31;53349;53.538;8.584;2023-02-18T01:40:24;7.24;74.58
66522;SHT31;53349;53.538;8.584;2023-02-18T01:42:50;7.23;74.48
66522;SHT31;53349;53.538;8.584;2023-02-18T01:48:06;7.24;74.20
66522;SHT31;53349;53.538;8.584;2023-02-18T01:50:39;7.27;74.11
66522;SHT31;53349;53.538;8.584;2023-02-18T01:53:06;7.30;74.01
66522;SHT31;53349;53.538;8.584;2023-02-18T01:55:33;7.30;74.06
66522;SHT31;53349;53.538;8.584;2023-02-18T01:58:01;7.28;74.02
66522;SHT31;53349;53.538;8.584;2023-02-18T02:03:02;7.35;73.78
66522;SHT31;53349;53.538;8.584;2023-02-18T02:05:32;7.35;73.70
66522;SHT31;53349;53.538;8.584;2023-02-18T02:07:58;7.35;73.64
66522;SHT31;53349;53.538;8.584;2023-02-18T02:13:23;7.37;73.53
66522;SHT31;53349;53.538;8.584;2023-02-18T02:15:58;7.38;73.47
66522;SHT31;53349;53.538;8.584;2023-02-18T02:18:50;7.40;73.29
66522;SHT31;53349;53.538;8.584;2023-02-18T02:27:28;7.34;73.39
66522;SHT31;53349;53.538;8.584;2023-02-18T02:36:02;7.37;73.30
66522;SHT31;53349;53.538;8.584;2023-02-18T02:38:37;7.35;73.40
66522;SHT31;53349;53.538;8.584;2023-02-18T02:41:17;7.38;73.32
66522;SHT31;53349;53.538;8.584;2023-02-18T02:43:57;7.34;73.31
66522;SHT31;53349;53.538;8.584;2023-02-18T02:46:30;7.34;73.43
66522;SHT31;53349;53.538;8.584;2023-02-18T02:49:12;7.28;73.61
66522;SHT31;53349;53.538;8.584;2023-02-18T02:52:13;7.30;73.47
66522;SHT31;53349;53.538;8.584;2023-02-18T02:54:43;7.33;73.45
66522;SHT31;53349;53.538;8.584;2023-02-18T02:59:42;7.31;73.66
66522;SHT31;53349;53.538;8.584;2023-02-18T03:08:12;7.30;73.97
66522;SHT31;53349;53.538;8.584;2023-02-18T03:10:49;7.31;74.10
66522;SHT31;53349;53.538;8.584;2023-02-18T03:16:30;7.33;74.17
66522;SHT31;53349;53.538;8.584;2023-02-18T03:21:44;7.35;74.12
66522;SHT31;53349;53.538;8.584;2023-02-18T03:24:29;7.34;74.23
66522;SHT31;53349;53.538;8.584;2023-02-18T03:27:10;7.35;74.24
66522;SHT31;53349;53.538;8.584;2023-02-18T03:29:38;7.38;74.37
66522;SHT31;53349;53.538;8.584;2023-02-18T03:32:07;7.41;74.37
66522;SHT31;53349;53.538;8.584;2023-02-18T03:34:37;7.41;74.34
66522;SHT31;53349;53.538;8.584;2023-02-18T03:37:06;7.41;74.31
66522;SHT31;53349;53.538;8.584;2023-02-18T03:39:34;7.44;74.25
66522;SHT31;53349;53.538;8.584;2023-02-18T03:42:00;7.44;74.27
66522;SHT31;53349;53.538;8.584;2023-02-18T03:44:25;7.46;74.36
66522;SHT31;53349;53.538;8.584;2023-02-18T03:46:53;7.44;74.42
66522;SHT31;53349;53.538;8.584;2023-02-18T03:49:19;7.47;74.51
66522;SHT31;53349;53.538;8.584;2023-02-18T03:51:45;7.47;74.74
66522;SHT31;53349;53.538;8.584;2023-02-18T03:54:12;7.48;74.91
66522;SHT31;53349;53.538;8.584;2023-02-18T03:56:37;7.46;75.11
66522;SHT31;53349;53.538;8.584;2023-02-18T03:59:05;7.50;75.16
66522;SHT31;53349;53.538;8.584;2023-02-18T04:01:32;7.50;75.19
66522;SHT31;53349;53.538;8.584;2023-02-18T04:04:04;7.47;75.20
66522;SHT31;53349;53.538;8.584;2023-02-18T04:06:34;7.46;75.17
66522;SHT31;53349;53.538;8.584;2023-02-18T04:09:00;7.47;75.16
66522;SHT31;53349;53.538;8.584;2023-02-18T04:11:26;7.50;75.48
66522;SHT31;53349;53.538;8.584;2023-02-18T04:13:52;7.50;75.16
66522;SHT31;53349;53.538;8.584;2023-02-18T04:16:17;7.48;74.98
66522;SHT31;53349;53.538;8.584;2023-02-18T04:18:43;7.48;75.01
66522;SHT31;53349;53.538;8.584;2023-02-18T04:21:10;7.43;75.16
66522;SHT31;53349;53.538;8.584;2023-02-18T04:23:36;7.44;75.23
66522;SHT31;53349;53.538;8.584;2023-02-18T04:26:03;7.43;75.31
66522;SHT31;53349;53.538;8.584;2023-02-18T04:28:29;7.41;75.34
66522;SHT31;53349;53.538;8.584;2023-02-18T04:30:56;7.41;75.45
66522;SHT31;53349;53.538;8.584;2023-02-18T04:33:22;7.38;75.66
66522;SHT31;53349;53.538;8.584;2023-02-18T04:35:47;7.38;75.80
66522;SHT31;53349;53.538;8.584;2023-02-18T04:38:16;7.40;75.91
66522;SHT31;53349;53.538;8.584;2023-02-18T04:40:41;7.35;76.08
66522;SHT31;53349;53.538;8.584;2023-02-18T04:43:08;7.34;76.26
66522;SHT31;53349;53.538;8.584;2023-02-18T04:45:34;7.31;76.49
66522;SHT31;53349;53.538;8.584;2023-02-18T04:48:00;7.28;76.63
66522;SHT31;53349;53.538;8.584;2023-02-18T04:50:26;7.26;76.62
66522;SHT31;53349;53.538;8.584;2023-02-18T04:52:51;7.24;76.86
66522;SHT31;53349;53.538;8.584;2023-02-18T04:55:18;7.24;76.98
66522;SHT31;53349;53.538;8.584;2023-02-18T04:57:43;7.24;76.96
66522;SHT31;53349;53.538;8.584;2023-02-18T05:00:13;7.22;77.00
66522;SHT31;53349;53.538;8.584;2023-02-18T05:02:45;7.22;77.20
66522;SHT31;53349;53.538;8.584;2023-02-18T05:05:12;7.26;77.54
66522;SHT31;53349;53.538;8.584;2023-02-18T05:07:38;7.24;77.81
66522;SHT31;53349;53.538;8.584;2023-02-18T05:10:05;7.22;77.87
66522;SHT31;53349;53.538;8.584;2023-02-18T05:12:31;7.23;77.89
66522;SHT31;53349;53.538;8.584;2023-02-18T05:14:57;7.23;77.88
66522;SHT31;53349;53.538;8.584;2023-02-18T05:17:22;7.26;77.88
66522;SHT31;53349;53.538;8.584;2023-02-18T05:19:48;7.26;78.00
66522;SHT31;53349;53.538;8.584;2023-02-18T05:22:14;7.26;77.97
66522;SHT31;53349;53.538;8.584;2023-02-18T05:24:39;7.26;77.99
66522;SHT31;53349;53.538;8.584;2023-02-18T05:27:05;7.26;77.96
66522;SHT31;53349;53.538;8.584;2023-02-18T05:29:31;7.24;78.13
66522;SHT31;53349;53.538;8.584;2023-02-18T05:31:58;7.26;78.54
66522;SHT31;53349;53.538;8.584;2023-02-18T05:34:24;7.24;78.69
66522;SHT31;53349;53.538;8.584;2023-02-18T05:36:49;7.24;78.56
66522;SHT31;53349;53.538;8.584;2023-02-18T05:39:15;7.22;78.55
66522;SHT31;53349;53.538;8.584;2023-02-18T05:41:40;7.23;78.56
66522;SHT31;53349;53.538;8.584;2023-02-18T05:44:07;7.20;78.45
66522;SHT31;53349;53.538;8.584;2023-02-18T05:46:33;7.16;78.57
66522;SHT31;53349;53.538;8.584;2023-02-18T05:49:00;7.13;78.60
66522;SHT31;53349;53.538;8.584;2023-02-18T05:51:26;7.10;78.74
66522;SHT31;53349;53.538;8.584;2023-02-18T05:53:51;7.07;78.94
66522;SHT31;53349;53.538;8.584;2023-02-18T05:56:22;7.10;79.03
66522;SHT31;53349;53.538;8.584;2023-02-18T05:58:48;7.07;79.25
66522;SHT31;53349;53.538;8.584;2023-02-18T06:01:15;7.10;79.51
66522;SHT31;53349;53.538;8.584;2023-02-18T06:03:40;7.06;79.43
66522;SHT31;53349;53.538;8.584;2023-02-18T06:06:06;7.06;79.45
66522;SHT31;53349;53.538;8.584;2023-02-18T06:08:31;7.03;79.59
66522;SHT31;53349;53.538;8.584;2023-02-18T06:10:58;7.07;79.69
66522;SHT31;53349;53.538;8.584;2023-02-18T06:13:23;7.06;79.82
66522;SHT31;53349;53.538;8.584;2023-02-18T06:15:50;7.09;80.00
66522;SHT31;53349;53.538;8.584;2023-02-18T06:18:15;7.10;79.92
66522;SHT31;53349;53.538;8.584;2023-02-18T06:20:42;7.10;80.08
66522;SHT31;53349;53.538;8.584;2023-02-18T06:23:07;7.03;80.10
66522;SHT31;53349;53.538;8.584;2023-02-18T06:25:34;6.99;80.27
66522;SHT31;53349;53.538;8.584;2023-02-18T06:27:59;6.96;80.29
66522;SHT31;53349;53.538;8.584;2023-02-18T06:30:24;6.93;80.49
66522;SHT31;53349;53.538;8.584;2023-02-18T06:32:49;6.91;80.70
66522;SHT31;53349;53.538;8.584;2023-02-18T06:35:16;6.91;81.01
66522;SHT31;53349;53.538;8.584;2023-02-18T06:37:41;6.86;81.38
66522;SHT31;53349;53.538;8.584;2023-02-18T06:40:07;6.82;81.58
66522;SHT31;53349;53.538;8.584;2023-02-18T06:42:33;6.83;81.86
66522;SHT31;53349;53.538;8.584;2023-02-18T06:44:58;6.83;81.96
66522;SHT31;53349;53.538;8.584;2023-02-18T06:47:24;6.85;82.09
66522;SHT31;53349;53.538;8.584;2023-02-18T06:49:50;6.88;82.12
66522;SHT31;53349;53.538;8.584;2023-02-18T06:52:17;6.89;82.25
66522;SHT31;53349;53.538;8.584;2023-02-18T06:54:43;6.88;82.45
66522;SHT31;53349;53.538;8.584;2023-02-18T06:57:09;6.86;82.64
66522;SHT31;53349;53.538;8.584;2023-02-18T06:59:36;6.89;82.66
66522;SHT31;53349;53.538;8.584;2023-02-18T07:02:01;6.88;82.71
66522;SHT31;53349;53.538;8.584;2023-02-18T07:04:27;6.88;82.98
66522;SHT31;53349;53.538;8.584;2023-02-18T07:06:53;6.86;83.15
66522;SHT31;53349;53.538;8.584;2023-02-18T07:09:18;6.85;83.30
66522;SHT31;53349;53.538;8.584;2023-02-18T07:11:44;6.83;83.47
66522;SHT31;53349;53.538;8.584;2023-02-18T07:14:12;6.89;83.61
66522;SHT31;53349;53.538;8.584;2023-02-18T07:16:37;6.89;83.62
66522;SHT31;53349;53.538;8.584;2023-02-18T07:19:04;6.86;83.72
66522;SHT31;53349;53.538;8.584;2023-02-18T07:21:32;6.91;83.87
66522;SHT31;53349;53.538;8.584;2023-02-18T07:23:58;6.89;83.90
66522;SHT31;53349;53.538;8.584;2023-02-18T07:26:24;6.83;84.05
66522;SHT31;53349;53.538;8.584;2023-02-18T07:28:50;6.88;84.19
66522;SHT31;53349;53.538;8.584;2023-02-18T07:31:17;6.89;84.31
66522;SHT31;53349;53.538;8.584;2023-02-18T07:33:49;6.83;84.43
66522;SHT31;53349;53.538;8.584;2023-02-18T07:36:15;6.75;84.83
66522;SHT31;53349;53.538;8.584;2023-02-18T07:38:40;6.73;85.00
66522;SHT31;53349;53.538;8.584;2023-02-18T07:41:18;6.75;85.17
66522;SHT31;53349;53.538;8.584;2023-02-18T07:43:45;6.78;85.21
66522;SHT31;53349;53.538;8.584;2023-02-18T07:46:10;6.82;85.23
66522;SHT31;53349;53.538;8.584;2023-02-18T07:48:37;6.88;85.28
66522;SHT31;53349;53.538;8.584;2023-02-18T07:51:07;6.89;85.35
66522;SHT31;53349;53.538;8.584;2023-02-18T07:53:33;6.92;85.34
66522;SHT31;53349;53.538;8.584;2023-02-18T07:55:59;6.86;85.40
66522;SHT31;53349;53.538;8.584;2023-02-18T07:58:30;6.91;85.56
66522;SHT31;53349;53.538;8.584;2023-02-18T08:01:05;6.91;85.69
66522;SHT31;53349;53.538;8.584;2023-02-18T08:03:35;6.93;85.76
66522;SHT31;53349;53.538;8.584;2023-02-18T08:06:14;6.91;85.82
66522;SHT31;53349;53.538;8.584;2023-02-18T08:08:45;6.92;85.95
66522;SHT31;53349;53.538;8.584;2023-02-18T08:11:15;6.96;86.16
66522;SHT31;53349;53.538;8.584;2023-02-18T08:13:41;6.95;86.21
66522;SHT31;53349;53.538;8.584;2023-02-18T08:16:17;6.93;86.37
66522;SHT31;53349;53.538;8.584;2023-02-18T08:18:44;6.99;86.55
66522;SHT31;53349;53.538;8.584;2023-02-18T08:21:09;7.00;86.57
66522;SHT31;53349;53.538;8.584;2023-02-18T08:23:36;7.04;86.65
66522;SHT31;53349;53.538;8.584;2023-02-18T08:26:02;7.04;86.72
66522;SHT31;53349;53.538;8.584;2023-02-18T08:28:27;7.04;86.79
66522;SHT31;53349;53.538;8.584;2023-02-18T08:30:53;7.09;86.84
66522;SHT31;53349;53.538;8.584;2023-02-18T08:33:19;7.12;87.09
66522;SHT31;53349;53.538;8.584;2023-02-18T08:35:48;7.13;87.17
66522;SHT31;53349;53.538;8.584;2023-02-18T08:38:14;7.20;87.37
66522;SHT31;53349;53.538;8.584;2023-02-18T08:40:41;7.22;87.43
66522;SHT31;53349;53.538;8.584;2023-02-18T08:43:07;7.24;87.53
66522;SHT31;53349;53.538;8.584;2023-02-18T08:45:32;7.27;87.66
66522;SHT31;53349;53.538;8.584;2023-02-18T08:48:00;7.27;87.68
66522;SHT31;53349;53.538;8.584;2023-02-18T08:50:26;7.33;87.74
66522;SHT31;53349;53.538;8.584;2023-02-18T08:52:53;7.37;87.74
66522;SHT31;53349;53.538;8.584;2023-02-18T08:55:21;7.43;87.78
66522;SHT31;53349;53.538;8.584;2023-02-18T08:57:47;7.46;87.84
66522;SHT31;53349;53.538;8.584;2023-02-18T09:00:14;7.54;87.85
66522;SHT31;53349;53.538;8.584;2023-02-18T09:02:39;7.58;87.98
66522;SHT31;53349;53.538;8.584;2023-02-18T09:05:06;7.68;88.03
66522;SHT31;53349;53.538;8.584;2023-02-18T09:07:32;7.72;88.05
66522;SHT31;53349;53.538;8.584;2023-02-18T09:09:57;7.75;88.11
66522;SHT31;53349;53.538;8.584;2023-02-18T09:12:23;7.81;88.11
66522;SHT31;53349;53.538;8.584;2023-02-18T09:14:49;7.86;88.14
66522;SHT31;53349;53.538;8.584;2023-02-18T09:17:17;7.95;88.20
66522;SHT31;53349;53.538;8.584;2023-02-18T09:19:43;8.03;88.23
66522;SHT31;53349;53.538;8.584;2023-02-18T09:22:09;8.06;88.23
66522;SHT31;53349;53.538;8.584;2023-02-18T09:24:40;8.10;88.27
66522;SHT31;53349;53.538;8.584;2023-02-18T09:27:05;8.17;88.33
66522;SHT31;53349;53.538;8.584;2023-02-18T09:29:33;8.29;88.38
66522;SHT31;53349;53.538;8.584;2023-02-18T09:32:01;8.40;88.50
66522;SHT31;53349;53.538;8.584;2023-02-18T09:34:27;8.47;88.61
66522;SHT31;53349;53.538;8.584;2023-02-18T09:36:52;8.54;88.75
66522;SHT31;53349;53.538;8.584;2023-02-18T09:39:24;8.61;88.92
66522;SHT31;53349;53.538;8.584;2023-02-18T09:41:52;8.65;88.97
66522;SHT31;53349;53.538;8.584;2023-02-18T09:44:28;8.77;89.07
66522;SHT31;53349;53.538;8.584;2023-02-18T09:47:15;8.91;89.09
66522;SHT31;53349;53.538;8.584;2023-02-18T09:49:54;9.00;89.14
66522;SHT31;53349;53.538;8.584;2023-02-18T09:52:35;9.03;89.06
66522;SHT31;53349;53.538;8.584;2023-02-18T09:55:21;8.97;89.07
66522;SHT31;53349;53.538;8.584;2023-02-18T09:57:53;8.95;89.07
66522;SHT31;53349;53.538;8.584;2023-02-18T10:00:28;8.92;89.10
66522;SHT31;53349;53.538;8.584;2023-02-18T10:06:11;8.92;89.24
66522;SHT31;53349;53.538;8.584;2023-02-18T10:08:48;8.91;89.25
66522;SHT31;53349;53.538;8.584;2023-02-18T10:11:21;8.92;89.29
66522;SHT31;53349;53.538;8.584;2023-02-18T10:13:47;8.92;89.28
66522;SHT31;53349;53.538;8.584;2023-02-18T10:16:17;8.92;89.35
66522;SHT31;53349;53.538;8.584;2023-02-18T10:18:51;8.95;89.39
66522;SHT31;53349;53.538;8.584;2023-02-18T10:21:26;9.00;89.38
66522;SHT31;53349;53.538;8.584;2023-02-18T10:24:03;8.98;89.40
66522;SHT31;53349;53.538;8.584;2023-02-18T10:26:33;9.00;89.36
66522;SHT31;53349;53.538;8.584;2023-02-18T10:29:03;9.01;89.36
66522;SHT31;53349;53.538;8.584;2023-02-18T10:31:36;9.26;89.76
66522;SHT31;53349;53.538;8.584;2023-02-18T10:37:06;9.28;89.72
66522;SHT31;53349;53.538;8.584;2023-02-18T10:42:45;9.34;89.73
66522;SHT31;53349;53.538;8.584;2023-02-18T10:50:37;9.26;89.73
66522;SHT31;53349;53.538;8.584;2023-02-18T10:53:37;9.21;89.60
66522;SHT31;53349;53.538;8.584;2023-02-18T10:56:06;9.34;89.72
66522;SHT31;53349;53.538;8.584;2023-02-18T10:58:42;9.57;89.87
66522;SHT31;53349;53.538;8.584;2023-02-18T11:01:19;9.69;89.77
66522;SHT31;53349;53.538;8.584;2023-02-18T11:03:47;9.77;89.55
66522;SHT31;53349;53.538;8.584;2023-02-18T11:06:29;9.82;89.43
66522;SHT31;53349;53.538;8.584;2023-02-18T11:08:56;9.80;89.30
66522;SHT31;53349;53.538;8.584;2023-02-18T11:11:28;9.84;89.21
66522;SHT31;53349;53.538;8.584;2023-02-18T11:14:03;9.80;88.83
66522;SHT31;53349;53.538;8.584;2023-02-18T11:16:58;9.56;88.41
66522;SHT31;53349;53.538;8.584;2023-02-18T11:19:37;9.45;88.47
66522;SHT31;53349;53.538;8.584;2023-02-18T11:24:54;9.28;88.57
66522;SHT31;53349;53.538;8.584;2023-02-18T11:27:32;9.21;88.60
66522;SHT31;53349;53.538;8.584;2023-02-18T11:30:05;9.21;88.56
66522;SHT31;53349;53.538;8.584;2023-02-18T11:32:42;9.19;88.54
66522;SHT31;53349;53.538;8.584;2023-02-18T11:35:20;9.25;88.53
66522;SHT31;53349;53.538;8.584;2023-02-18T11:37:51;9.25;88.27
66522;SHT31;53349;53.538;8.584;2023-02-18T11:40:32;9.26;88.15
66522;SHT31;53349;53.538;8.584;2023-02-18T11:43:16;9.28;88.08
66522;SHT31;53349;53.538;8.584;2023-02-18T11:45:43;9.35;87.78
66522;SHT31;53349;53.538;8.584;2023-02-18T11:48:18;9.39;87.50
66522;SHT31;53349;53.538;8.584;2023-02-18T11:50:54;9.39;87.05
66522;SHT31;53349;53.538;8.584;2023-02-18T11:53:34;9.39;86.93
66522;SHT31;53349;53.538;8.584;2023-02-18T11:56:06;9.42;86.70
66522;SHT31;53349;53.538;8.584;2023-02-18T11:58:43;9.36;86.60
66522;SHT31;53349;53.538;8.584;2023-02-18T12:06:40;9.28;86.44
66522;SHT31;53349;53.538;8.584;2023-02-18T12:09:31;9.24;86.43
66522;SHT31;53349;53.538;8.584;2023-02-18T12:12:07;9.24;86.29
66522;SHT31;53349;53.538;8.584;2023-02-18T12:14:36;9.25;85.94
66522;SHT31;53349;53.538;8.584;2023-02-18T12:17:39;9.31;85.58
66522;SHT31;53349;53.538;8.584;2023-02-18T12:20:30;9.34;85.34
66522;SHT31;53349;53.538;8.584;2023-02-18T12:23:24;9.35;85.35
66522;SHT31;53349;53.538;8.584;2023-02-18T12:26:17;9.40;85.06
66522;SHT31;53349;53.538;8.584;2023-02-18T12:31:53;9.45;84.61
66522;SHT31;53349;53.538;8.584;2023-02-18T12:40:02;9.46;84.10
66522;SHT31;53349;53.538;8.584;2023-02-18T12:43:05;9.49;83.85
66522;SHT31;53349;53.538;8.584;2023-02-18T12:48:18;9.50;83.69
66522;SHT31;53349;53.538;8.584;2023-02-18T12:53:48;9.52;83.34
66522;SHT31;53349;53.538;8.584;2023-02-18T12:56:45;9.53;83.01
66522;SHT31;53349;53.538;8.584;2023-02-18T13:04:57;9.57;82.79
66522;SHT31;53349;53.538;8.584;2023-02-18T13:10:51;9.59;82.71
66522;SHT31;53349;53.538;8.584;2023-02-18T13:13:35;9.59;82.71
66522;SHT31;53349;53.538;8.584;2023-02-18T13:16:14;9.62;82.56
66522;SHT31;53349;53.538;8.584;2023-02-18T13:18:57;9.65;82.47
66522;SHT31;53349;53.538;8.584;2023-02-18T13:21:24;9.66;82.43
66522;SHT31;53349;53.538;8.584;2023-02-18T13:24:00;9.65;82.31
66522;SHT31;53349;53.538;8.584;2023-02-18T13:26:29;9.60;82.25
66522;SHT31;53349;53.538;8.584;2023-02-18T13:29:25;9.63;82.10
66522;SHT31;53349;53.538;8.584;2023-02-18T13:35:01;9.66;82.26
66522;SHT31;53349;53.538;8.584;2023-02-18T13:37:39;9.67;82.17
66522;SHT31;53349;53.538;8.584;2023-02-18T13:40:17;9.70;81.94
66522;SHT31;53349;53.538;8.584;2023-02-18T13:42:49;9.76;81.78
66522;SHT31;53349;53.538;8.584;2023-02-18T13:45:29;9.77;81.18
66522;SHT31;53349;53.538;8.584;2023-02-18T13:47:56;9.77;81.35
66522;SHT31;53349;53.538;8.584;2023-02-18T13:52:56;9.73;81.27
66522;SHT31;53349;53.538;8.584;2023-02-18T13:55:29;9.69;81.29
66522;SHT31;53349;53.538;8.584;2023-02-18T13:57:59;9.66;81.54
66522;SHT31;53349;53.538;8.584;2023-02-18T14:00:35;9.59;82.32
66522;SHT31;53349;53.538;8.584;2023-02-18T14:03:19;9.53;83.00
66522;SHT31;53349;53.538;8.584;2023-02-18T14:05:45;9.53;83.48
66522;SHT31;53349;53.538;8.584;2023-02-18T14:08:30;9.47;83.55
66522;SHT31;53349;53.538;8.584;2023-02-18T14:13:46;9.39;84.34
66522;SHT31;53349;53.538;8.584;2023-02-18T14:16:13;9.32;84.12
66522;SHT31;53349;53.538;8.584;2023-02-18T14:23:47;9.24;84.17
66522;SHT31;53349;53.538;8.584;2023-02-18T14:26:44;9.12;83.66
66522;SHT31;53349;53.538;8.584;2023-02-18T14:29:17;9.00;83.63
66522;SHT31;53349;53.538;8.584;2023-02-18T14:31:59;8.85;83.39
66522;SHT31;53349;53.538;8.584;2023-02-18T14:37:39;8.68;83.76
66522;SHT31;53349;53.538;8.584;2023-02-18T14:40:26;8.61;83.35
66522;SHT31;53349;53.538;8.584;2023-02-18T14:43:06;8.53;83.48
66522;SHT31;53349;53.538;8.584;2023-02-18T14:51:05;8.39;83.50
66522;SHT31;53349;53.538;8.584;2023-02-18T14:53:32;8.37;83.77
66522;SHT31;53349;53.538;8.584;2023-02-18T14:56:04;8.36;83.59
66522;SHT31;53349;53.538;8.584;2023-02-18T14:58:37;8.30;83.37
66522;SHT31;53349;53.538;8.584;2023-02-18T15:01:29;8.32;83.70
66522;SHT31;53349;53.538;8.584;2023-02-18T15:04:02;8.28;83.16
66522;SHT31;53349;53.538;8.584;2023-02-18T15:06:31;8.32;83.62
66522;SHT31;53349;53.538;8.584;2023-02-18T15:09:12;8.29;83.50
66522;SHT31;53349;53.538;8.584;2023-02-18T15:11:55;8.28;83.42
66522;SHT31;53349;53.538;8.584;2023-02-18T15:14:36;8.22;83.41
66522;SHT31;53349;53.538;8.584;2023-02-18T15:17:03;8.23;83.57
66522;SHT31;53349;53.538;8.584;2023-02-18T15:19:43;8.21;83.44
66522;SHT31;53349;53.538;8.584;2023-02-18T15:22:18;8.21;83.50
66522;SHT31;53349;53.538;8.584;2023-02-18T15:24:44;8.21;83.57
66522;SHT31;53349;53.538;8.584;2023-02-18T15:27:15;8.21;83.50
66522;SHT31;53349;53.538;8.584;2023-02-18T15:30:12;8.17;83.44
66522;SHT31;53349;53.538;8.584;2023-02-18T15:32:49;8.07;83.00
66522;SHT31;53349;53.538;8.584;2023-02-18T15:35:17;8.07;83.44
66522;SHT31;53349;53.538;8.584;2023-02-18T15:37:51;8.03;83.47
66522;SHT31;53349;53.538;8.584;2023-02-18T15:40:18;8.01;83.48
66522;SHT31;53349;53.538;8.584;2023-02-18T15:42:51;8.01;83.60
66522;SHT31;53349;53.538;8.584;2023-02-18T15:45:19;7.95;83.50
66522;SHT31;53349;53.538;8.584;2023-02-18T15:48:05;7.96;83.55
66522;SHT31;53349;53.538;8.584;2023-02-18T15:50:36;7.91;83.43
66522;SHT31;53349;53.538;8.584;2023-02-18T15:53:14;7.88;83.49
66522;SHT31;53349;53.538;8.584;2023-02-18T15:55:42;7.85;83.30
66522;SHT31;53349;53.538;8.584;2023-02-18T15:58:16;7.82;83.43
66522;SHT31;53349;53.538;8.584;2023-02-18T16:00:51;7.77;83.49
66522;SHT31;53349;53.538;8.584;2023-02-18T16:03:31;7.72;83.56
66522;SHT31;53349;53.538;8.584;2023-02-18T16:06:18;7.70;83.32
66522;SHT31;53349;53.538;8.584;2023-02-18T16:11:37;7.54;83.05
66522;SHT31;53349;53.538;8.584;2023-02-18T16:14:04;7.51;83.43
66522;SHT31;53349;53.538;8.584;2023-02-18T16:16:32;7.47;83.41
66522;SHT31;53349;53.538;8.584;2023-02-18T16:18:58;7.47;83.53
66522;SHT31;53349;53.538;8.584;2023-02-18T16:21:37;7.43;83.67
66522;SHT31;53349;53.538;8.584;2023-02-18T16:24:28;7.46;83.83
66522;SHT31;53349;53.538;8.584;2023-02-18T16:26:59;7.43;83.82
66522;SHT31;53349;53.538;8.584;2023-02-18T16:29:36;7.44;83.86
66522;SHT31;53349;53.538;8.584;2023-02-18T16:32:05;7.44;83.96
66522;SHT31;53349;53.538;8.584;2023-02-18T16:34:31;7.40;83.54
66522;SHT31;53349;53.538;8.584;2023-02-18T16:36:56;7.38;83.31
66522;SHT31;53349;53.538;8.584;2023-02-18T16:39:23;7.34;83.40
66522;SHT31;53349;53.538;8.584;2023-02-18T16:41:52;7.30;83.28
66522;SHT31;53349;53.538;8.584;2023-02-18T16:44:18;7.30;83.43
66522;SHT31;53349;53.538;8.584;2023-02-18T16:46:43;7.28;83.17
66522;SHT31;53349;53.538;8.584;2023-02-18T16:49:12;7.33;83.50
66522;SHT31;53349;53.538;8.584;2023-02-18T16:51:40;7.33;83.29
66522;SHT31;53349;53.538;8.584;2023-02-18T16:54:13;7.28;83.11
66522;SHT31;53349;53.538;8.584;2023-02-18T16:56:39;7.27;83.11
66522;SHT31;53349;53.538;8.584;2023-02-18T16:59:05;7.19;82.72
66522;SHT31;53349;53.538;8.584;2023-02-18T17:01:40;7.23;83.21
66522;SHT31;53349;53.538;8.584;2023-02-18T17:04:10;7.14;82.59
66522;SHT31;53349;53.538;8.584;2023-02-18T17:06:35;7.17;82.89
66522;SHT31;53349;53.538;8.584;2023-02-18T17:09:09;7.22;83.18
66522;SHT31;53349;53.538;8.584;2023-02-18T17:11:35;7.20;83.11
66522;SHT31;53349;53.538;8.584;2023-02-18T17:14:02;7.20;83.14
66522;SHT31;53349;53.538;8.584;2023-02-18T17:16:27;7.20;83.07
66522;SHT31;53349;53.538;8.584;2023-02-18T17:18:53;7.22;83.06
66522;SHT31;53349;53.538;8.584;2023-02-18T17:21:20;7.24;82.91
66522;SHT31;53349;53.538;8.584;2023-02-18T17:23:49;7.22;82.73
66522;SHT31;53349;53.538;8.584;2023-02-18T17:26:21;7.23;82.80
66522;SHT31;53349;53.538;8.584;2023-02-18T17:28:48;7.24;82.59
66522;SHT31;53349;53.538;8.584;2023-02-18T17:31:18;7.24;82.69
66522;SHT31;53349;53.538;8.584;2023-02-18T17:33:45;7.19;82.02
66522;SHT31;53349;53.538;8.584;2023-02-18T17:36:13;7.16;82.03
66522;SHT31;53349;53.538;8.584;2023-02-18T17:38:39;7.14;82.53
66522;SHT31;53349;53.538;8.584;2023-02-18T17:41:07;7.17;82.48
66522;SHT31;53349;53.538;8.584;2023-02-18T17:43:37;7.19;82.41
66522;SHT31;53349;53.538;8.584;2023-02-18T17:46:09;7.19;82.49
66522;SHT31;53349;53.538;8.584;2023-02-18T17:48:56;7.17;82.18
66522;SHT31;53349;53.538;8.584;2023-02-18T17:51:26;7.16;82.00